< < Back
Terminal Aerodrome Forecast


Current Version              Previous Versions:   1  2  3  4  5  6  7  8  9  

Terminal Aerodrome Forecast

877
FTUS42 KILM 300520
TAFILM
TAF
KILM 300520Z 3006/3106 03003KT P6SM BKN250
     FM301400 05006KT P6SM SCT045 BKN200
     FM302000 09008KT P6SM VCSH SCT035 BKN100
     FM310000 12004KT P6SM VCSH SCT030 OVC080=



Latest METAR

865
SAUS70 KWBC 300700
MTRILM
METAR KILM 300653Z AUTO 00000KT 10SM CLR 22/18 A3011 RMK AO2 SLP195
T02170183


USA.gov is the U.S. government's official web portal to all federal, state and local government web resources and services.